Tamrey S — TCA4286 — position and weather

sailwx.info

Track history (hours):
 
Tides and Currents Weather Stations Pressure Air Temp Water Temp Dewpoint Dewpoint Depression Visibility Wind Speed Wind Dir Waves Ship Positions

Tamrey S

Last reported at 2018-Feb-25 19:13 UTC. Time now 2018-Feb-26 01:22 UTC.
Position N 32°54' E 034°60'.

Length 176 m; draft 10.8 m.

Type: Cargo ship. MMSI: 271044600.

Date/timePositionNaut miles runAvg speedWind from/ knotsBaromVisibWave heightAir tempDewpointWater temp
2018-Feb-25 19:13N 32°54' E 034°60'0 0.0
2018-Feb-25 18:55N 32°54' E 034°60'0 0.0
2018-Feb-25 18:22N 32°54' E 034°60'1 0.2
2018-Feb-25 12:26N 32°53' E 035°00'0 0.0
2018-Feb-25 11:59N 32°53' E 035°00'0 0.0
2018-Feb-25 11:30N 32°53' E 035°00'0 0.0
2018-Feb-25 10:59N 32°53' E 035°00'0 0.1
2018-Feb-25 06:23N 32°52' E 034°60'2 4.8
2018-Feb-25 06:00N 32°53' E 034°58'5 9.7
2018-Feb-25 05:30N 32°53' E 034°52'510.5
2018-Feb-25 05:00N 32°54' E 034°46'510.7
2018-Feb-25 04:30N 32°55' E 034°40'610.6
2018-Feb-25 03:57N 32°56' E 034°33'610.5
2018-Feb-25 03:21N 32°57' E 034°25'  
2018-Feb-19 20:10N 44°24' E 037°20'212.1
2018-Feb-19 19:58N 44°25' E 037°23'611.9
2018-Feb-19 19:30N 44°27' E 037°29'611.6
2018-Feb-19 19:00N 44°30' E 037°36'611.5
2018-Feb-19 18:30N 44°33' E 037°43'611.2
2018-Feb-19 18:00N 44°37' E 037°48'4 7.0
2018-Feb-19 17:30N 44°40' E 037°51'0 0.5
2018-Feb-19 17:00N 44°40' E 037°51'0 0.1
2018-Feb-19 16:30N 44°40' E 037°51'0 0.0
2018-Feb-19 16:00N 44°40' E 037°51'0 0.0
2018-Feb-19 15:30N 44°40' E 037°51'0 0.1
2018-Feb-19 15:00N 44°40' E 037°51'0 0.0
2018-Feb-19 14:30N 44°40' E 037°51'0 0.1
2018-Feb-19 14:00N 44°40' E 037°51'0 0.1
2018-Feb-19 13:30N 44°40' E 037°51'0 0.1
2018-Feb-19 13:00N 44°40' E 037°51'0 0.1
2018-Feb-19 12:30N 44°40' E 037°51'0 0.0
2018-Feb-19 12:00N 44°40' E 037°51'0 0.1
2018-Feb-19 11:30N 44°40' E 037°51'0 0.0
2018-Feb-19 11:00N 44°40' E 037°51'0 0.6
2018-Feb-19 10:31N 44°41' E 037°51'2 4.2
2018-Feb-19 10:01N 44°42' E 037°49'2 3.6
2018-Feb-19 09:30N 44°44' E 037°47'0 0.3
2018-Feb-19 08:59N 44°44' E 037°47'0 0.0
2018-Feb-19 08:23N 44°44' E 037°47'0 0.0
2018-Feb-19 07:59N 44°44' E 037°47'0 0.0
2018-Feb-19 07:29N 44°44' E 037°47'0 0.0
2018-Feb-19 06:59N 44°44' E 037°47'0 0.0
2018-Feb-19 06:29N 44°44' E 037°47'0 0.0
2018-Feb-19 05:59N 44°44' E 037°47'0 0.0
2018-Feb-19 05:29N 44°44' E 037°47'0 0.0
2018-Feb-19 04:59N 44°44' E 037°47'0 0.0
2018-Feb-19 04:29N 44°44' E 037°47'0 0.0
2018-Feb-19 03:59N 44°44' E 037°47'0 0.0
2018-Feb-19 03:29N 44°44' E 037°47'0 0.0
2018-Feb-19 02:59N 44°44' E 037°47'0 0.0
2018-Feb-19 02:29N 44°44' E 037°47'0 0.0
2018-Feb-19 01:59N 44°44' E 037°47'0 0.0
2018-Feb-19 01:29N 44°44' E 037°47'0 0.0
2018-Feb-19 00:59N 44°44' E 037°47'0 0.0
2018-Feb-19 00:29N 44°44' E 037°47'0 0.0
2018-Feb-18 23:59N 44°44' E 037°47'0 0.0
2018-Feb-18 23:29N 44°44' E 037°47'0 0.0
2018-Feb-18 22:59N 44°44' E 037°47'0 0.0
2018-Feb-18 22:29N 44°44' E 037°47'0 0.0
2018-Feb-18 21:59N 44°44' E 037°47'0 0.0
2018-Feb-18 21:29N 44°44' E 037°47'0 0.0
2018-Feb-18 20:59N 44°44' E 037°47'0 0.0
2018-Feb-18 20:29N 44°44' E 037°47'0 0.0
2018-Feb-18 19:59N 44°44' E 037°47'0 0.0
2018-Feb-18 19:29N 44°44' E 037°47'0 0.0
2018-Feb-18 18:59N 44°44' E 037°47'0 0.0
2018-Feb-18 18:29N 44°44' E 037°47'0 0.0
2018-Feb-18 17:59N 44°44' E 037°47'0 0.0
2018-Feb-18 17:29N 44°44' E 037°47'0 0.0
2018-Feb-18 16:59N 44°44' E 037°47'0 0.0
2018-Feb-18 16:29N 44°44' E 037°47'0 0.0
2018-Feb-18 15:59N 44°44' E 037°47'0 0.0
2018-Feb-18 15:29N 44°44' E 037°47'0 0.0
2018-Feb-18 14:59N 44°44' E 037°47'0 0.0
2018-Feb-18 14:29N 44°44' E 037°47'0 0.0
2018-Feb-18 13:59N 44°44' E 037°47'0 0.0
2018-Feb-18 13:29N 44°44' E 037°47'0 0.0
2018-Feb-18 12:59N 44°44' E 037°47'0 0.0
2018-Feb-18 12:29N 44°44' E 037°47'0 0.0
2018-Feb-18 11:59N 44°44' E 037°47'0 0.0
2018-Feb-18 11:29N 44°44' E 037°47'0 0.0
2018-Feb-18 10:59N 44°44' E 037°47'0 0.0
2018-Feb-18 10:29N 44°44' E 037°47'0 0.0
2018-Feb-18 09:59N 44°44' E 037°47'0 0.0
2018-Feb-18 09:29N 44°44' E 037°47'0 0.0
2018-Feb-18 08:59N 44°44' E 037°47'0 0.0
2018-Feb-18 08:29N 44°44' E 037°47'0 0.0
2018-Feb-18 07:59N 44°44' E 037°47'0 0.0
2018-Feb-18 07:29N 44°44' E 037°47'0 0.0
2018-Feb-18 06:59N 44°44' E 037°47'0 0.0
2018-Feb-18 06:29N 44°44' E 037°47'0 0.0
2018-Feb-18 05:59N 44°44' E 037°47'0 0.0
2018-Feb-18 05:29N 44°44' E 037°47'0 0.0
2018-Feb-18 04:59N 44°44' E 037°47'0 0.0
2018-Feb-18 04:29N 44°44' E 037°47'0 0.0
2018-Feb-18 03:59N 44°44' E 037°47'0 0.0
2018-Feb-18 03:29N 44°44' E 037°47'0 0.0
2018-Feb-18 02:59N 44°44' E 037°47'0 0.0
2018-Feb-18 02:29N 44°44' E 037°47'0 0.0
2018-Feb-18 01:59N 44°44' E 037°47'0 0.0
2018-Feb-18 01:29N 44°44' E 037°47'0 0.0
2018-Feb-18 01:00N 44°44' E 037°47'1 1.9
2018-Feb-18 00:30N 44°43' E 037°48'1 3.0
2018-Feb-18 00:00N 44°42' E 037°49'3 5.4
2018-Feb-17 23:30N 44°39' E 037°51'2 4.1
2018-Feb-17 23:00N 44°38' E 037°53'0 0.7
2018-Feb-17 22:30N 44°38' E 037°52'3 6.1
2018-Feb-17 22:00N 44°34' E 037°52'3 5.4
2018-Feb-17 21:30N 44°33' E 037°54'3 5.9
2018-Feb-17 21:00N 44°33' E 037°58'0 0.1
2018-Feb-17 20:28N 44°33' E 037°58'0 0.0
2018-Feb-17 19:58N 44°33' E 037°58'0 0.0
2018-Feb-17 19:28N 44°33' E 037°58'0 0.1
2018-Feb-17 18:58N 44°33' E 037°58'0 0.1
2018-Feb-17 18:28N 44°33' E 037°58'0 0.1
2018-Feb-17 17:58N 44°33' E 037°58'0 0.1
2018-Feb-17 17:28N 44°33' E 037°58'0 0.0
2018-Feb-17 16:58N 44°33' E 037°58'0 0.1
2018-Feb-17 16:28N 44°33' E 037°58'0 0.1
2018-Feb-17 15:58N 44°33' E 037°58'0 0.0
2018-Feb-17 15:28N 44°33' E 037°58'0 0.1
2018-Feb-17 14:58N 44°33' E 037°58'0 0.1
2018-Feb-17 14:25N 44°33' E 037°58'0 0.0
2018-Feb-17 13:58N 44°33' E 037°58'0 0.0
2018-Feb-17 13:28N 44°33' E 037°58'0 0.0
2018-Feb-17 12:58N 44°33' E 037°58'0 0.0
2018-Feb-17 12:28N 44°33' E 037°58'0 0.0
2018-Feb-17 11:58N 44°33' E 037°58'0 0.1
2018-Feb-17 11:28N 44°33' E 037°58'0 0.0
2018-Feb-17 10:58N 44°33' E 037°58'0 0.0
2018-Feb-17 10:28N 44°33' E 037°58'0 0.0
2018-Feb-17 09:58N 44°33' E 037°58'0 0.0
2018-Feb-17 09:28N 44°33' E 037°58'0 0.0
2018-Feb-17 08:58N 44°33' E 037°58'0 0.1
2018-Feb-17 08:28N 44°33' E 037°58'0 0.0
2018-Feb-17 07:58N 44°33' E 037°58'0 0.0
2018-Feb-17 07:28N 44°33' E 037°58'0 0.0
2018-Feb-17 06:58N 44°33' E 037°58'0 0.0
2018-Feb-17 06:28N 44°33' E 037°58'0 0.0
2018-Feb-17 05:58N 44°33' E 037°58'0 0.1
2018-Feb-17 05:28N 44°33' E 037°58'0 0.0
2018-Feb-17 04:58N 44°33' E 037°58'0 0.1
2018-Feb-17 04:28N 44°33' E 037°58'0 0.1
2018-Feb-17 03:58N 44°33' E 037°58'0 0.0
2018-Feb-17 03:25N 44°33' E 037°58'0 0.0
2018-Feb-17 02:58N 44°33' E 037°58'0 0.1
2018-Feb-17 02:28N 44°33' E 037°58'0 0.0
2018-Feb-17 01:58N 44°33' E 037°58'0 0.0
2018-Feb-17 01:28N 44°33' E 037°58'0 0.2
2018-Feb-17 00:58N 44°33' E 037°58'0 0.0
2018-Feb-17 00:28N 44°33' E 037°58'0 0.0
2018-Feb-16 23:58N 44°33' E 037°58'0 0.0
2018-Feb-16 23:28N 44°33' E 037°58'0 0.1
2018-Feb-16 22:58N 44°33' E 037°58'0 0.1
2018-Feb-16 22:28N 44°33' E 037°58'0 0.1
2018-Feb-16 21:58N 44°33' E 037°58'0 0.0
2018-Feb-16 21:28N 44°33' E 037°58'0 0.0
2018-Feb-16 20:58N 44°33' E 037°58'0 0.0
2018-Feb-16 20:28N 44°33' E 037°58'0 0.0
2018-Feb-16 19:58N 44°33' E 037°58'0 0.1
2018-Feb-16 19:28N 44°33' E 037°58'0 0.0
2018-Feb-16 18:55N 44°33' E 037°58'0 0.0
2018-Feb-16 18:28N 44°33' E 037°58'0 0.0
2018-Feb-16 17:58N 44°33' E 037°58'0 0.1
2018-Feb-16 17:28N 44°33' E 037°58'0 0.1
2018-Feb-16 16:58N 44°33' E 037°58'0 0.0
2018-Feb-16 16:25N 44°33' E 037°58'0 0.0
2018-Feb-16 15:58N 44°33' E 037°58'0 0.0
2018-Feb-16 15:28N 44°33' E 037°58'0 0.0
2018-Feb-16 14:58N 44°33' E 037°58'0 0.0
2018-Feb-16 14:28N 44°33' E 037°58'0 0.1
2018-Feb-16 13:58N 44°33' E 037°58'0 0.0
2018-Feb-16 13:28N 44°33' E 037°58'0 0.0
2018-Feb-16 12:58N 44°33' E 037°58'0 0.0
2018-Feb-16 12:28N 44°33' E 037°58'0 0.0
2018-Feb-16 11:58N 44°33' E 037°58'0 0.0
2018-Feb-16 11:28N 44°33' E 037°58'0 0.1
2018-Feb-16 10:58N 44°33' E 037°58'0 0.0
2018-Feb-16 10:28N 44°33' E 037°58'0 0.0
2018-Feb-16 09:58N 44°33' E 037°58'0 0.0
2018-Feb-16 09:28N 44°33' E 037°58'0 0.0
2018-Feb-16 08:58N 44°33' E 037°58'0 0.1
2018-Feb-16 08:28N 44°33' E 037°58'0 0.1
2018-Feb-16 07:58N 44°33' E 037°58'0 0.0
2018-Feb-16 07:28N 44°33' E 037°58'0 0.0
2018-Feb-16 06:58N 44°33' E 037°58'0 0.0
2018-Feb-16 06:28N 44°33' E 037°58'0 0.0
2018-Feb-16 05:58N 44°33' E 037°58'0 0.0
2018-Feb-16 05:28N 44°33' E 037°58'0 0.0
2018-Feb-16 04:52N 44°33' E 037°58'0 0.0
2018-Feb-16 04:28N 44°33' E 037°58'0 0.0
2018-Feb-16 03:58N 44°33' E 037°58'0 0.1
2018-Feb-16 03:28N 44°33' E 037°58'0 0.1
2018-Feb-16 02:58N 44°33' E 037°58'0 0.0
2018-Feb-16 02:28N 44°33' E 037°58'0 0.0
2018-Feb-16 01:58N 44°33' E 037°58'0 0.1
2018-Feb-16 01:28N 44°33' E 037°58'0 0.1
2018-Feb-16 00:58N 44°33' E 037°58'0 0.1
2018-Feb-16 00:28N 44°33' E 037°58'0 0.1
2018-Feb-15 23:58N 44°33' E 037°58'0 0.0
2018-Feb-15 23:28N 44°33' E 037°58'0 0.0
2018-Feb-15 22:58N 44°33' E 037°58'0 0.0
2018-Feb-15 22:28N 44°33' E 037°58'0 0.0
2018-Feb-15 21:58N 44°33' E 037°58'0 0.0
2018-Feb-15 21:28N 44°33' E 037°58'0 0.0
2018-Feb-15 20:58N 44°33' E 037°58'0 0.0
2018-Feb-15 20:28N 44°33' E 037°58'0 0.0
2018-Feb-15 19:58N 44°33' E 037°58'0 0.0
2018-Feb-15 19:28N 44°33' E 037°58'  
Track history (hours):
 
Tides and Currents Weather Stations Pressure Air Temp Water Temp Dewpoint Dewpoint Depression Visibility Wind Speed Wind Dir Waves Ship Positions

Tamrey S

Last reported at 2018-Feb-25 19:13 UTC. Time now 2018-Feb-26 01:22 UTC.
Position N 32°54' E 034°60'.

Length 176 m; draft 10.8 m.

Type: Cargo ship. MMSI: 271044600.

Date/timePositionNaut miles runAvg speedWind from/ knotsBaromVisibWave heightAir tempDewpointWater temp
2018-Feb-25 19:13N 32°54' E 034°60'0 0.0
2018-Feb-25 18:55N 32°54' E 034°60'0 0.0
2018-Feb-25 18:22N 32°54' E 034°60'1 0.2
2018-Feb-25 12:26N 32°53' E 035°00'0 0.0
2018-Feb-25 11:59N 32°53' E 035°00'0 0.0
2018-Feb-25 11:30N 32°53' E 035°00'0 0.0
2018-Feb-25 10:59N 32°53' E 035°00'0 0.1
2018-Feb-25 06:23N 32°52' E 034°60'2 4.8
2018-Feb-25 06:00N 32°53' E 034°58'5 9.7
2018-Feb-25 05:30N 32°53' E 034°52'510.5
2018-Feb-25 05:00N 32°54' E 034°46'510.7
2018-Feb-25 04:30N 32°55' E 034°40'610.6
2018-Feb-25 03:57N 32°56' E 034°33'610.5
2018-Feb-25 03:21N 32°57' E 034°25'  
2018-Feb-19 20:10N 44°24' E 037°20'212.1
2018-Feb-19 19:58N 44°25' E 037°23'611.9
2018-Feb-19 19:30N 44°27' E 037°29'611.6
2018-Feb-19 19:00N 44°30' E 037°36'611.5
2018-Feb-19 18:30N 44°33' E 037°43'611.2
2018-Feb-19 18:00N 44°37' E 037°48'4 7.0
2018-Feb-19 17:30N 44°40' E 037°51'0 0.5
2018-Feb-19 17:00N 44°40' E 037°51'0 0.1
2018-Feb-19 16:30N 44°40' E 037°51'0 0.0
2018-Feb-19 16:00N 44°40' E 037°51'0 0.0
2018-Feb-19 15:30N 44°40' E 037°51'0 0.1
2018-Feb-19 15:00N 44°40' E 037°51'0 0.0
2018-Feb-19 14:30N 44°40' E 037°51'0 0.1
2018-Feb-19 14:00N 44°40' E 037°51'0 0.1
2018-Feb-19 13:30N 44°40' E 037°51'0 0.1
2018-Feb-19 13:00N 44°40' E 037°51'0 0.1
2018-Feb-19 12:30N 44°40' E 037°51'0 0.0
2018-Feb-19 12:00N 44°40' E 037°51'0 0.1
2018-Feb-19 11:30N 44°40' E 037°51'0 0.0
2018-Feb-19 11:00N 44°40' E 037°51'0 0.6
2018-Feb-19 10:31N 44°41' E 037°51'2 4.2
2018-Feb-19 10:01N 44°42' E 037°49'2 3.6
2018-Feb-19 09:30N 44°44' E 037°47'0 0.3
2018-Feb-19 08:59N 44°44' E 037°47'0 0.0
2018-Feb-19 08:23N 44°44' E 037°47'0 0.0
2018-Feb-19 07:59N 44°44' E 037°47'0 0.0
2018-Feb-19 07:29N 44°44' E 037°47'0 0.0
2018-Feb-19 06:59N 44°44' E 037°47'0 0.0
2018-Feb-19 06:29N 44°44' E 037°47'0 0.0
2018-Feb-19 05:59N 44°44' E 037°47'0 0.0
2018-Feb-19 05:29N 44°44' E 037°47'0 0.0
2018-Feb-19 04:59N 44°44' E 037°47'0 0.0
2018-Feb-19 04:29N 44°44' E 037°47'0 0.0
2018-Feb-19 03:59N 44°44' E 037°47'0 0.0
2018-Feb-19 03:29N 44°44' E 037°47'0 0.0
2018-Feb-19 02:59N 44°44' E 037°47'0 0.0
2018-Feb-19 02:29N 44°44' E 037°47'0 0.0
2018-Feb-19 01:59N 44°44' E 037°47'0 0.0
2018-Feb-19 01:29N 44°44' E 037°47'0 0.0
2018-Feb-19 00:59N 44°44' E 037°47'0 0.0
2018-Feb-19 00:29N 44°44' E 037°47'0 0.0
2018-Feb-18 23:59N 44°44' E 037°47'0 0.0
2018-Feb-18 23:29N 44°44' E 037°47'0 0.0
2018-Feb-18 22:59N 44°44' E 037°47'0 0.0
2018-Feb-18 22:29N 44°44' E 037°47'0 0.0
2018-Feb-18 21:59N 44°44' E 037°47'0 0.0
2018-Feb-18 21:29N 44°44' E 037°47'0 0.0
2018-Feb-18 20:59N 44°44' E 037°47'0 0.0
2018-Feb-18 20:29N 44°44' E 037°47'0 0.0
2018-Feb-18 19:59N 44°44' E 037°47'0 0.0
2018-Feb-18 19:29N 44°44' E 037°47'0 0.0
2018-Feb-18 18:59N 44°44' E 037°47'0 0.0
2018-Feb-18 18:29N 44°44' E 037°47'0 0.0
2018-Feb-18 17:59N 44°44' E 037°47'0 0.0
2018-Feb-18 17:29N 44°44' E 037°47'0 0.0
2018-Feb-18 16:59N 44°44' E 037°47'0 0.0
2018-Feb-18 16:29N 44°44' E 037°47'0 0.0
2018-Feb-18 15:59N 44°44' E 037°47'0 0.0
2018-Feb-18 15:29N 44°44' E 037°47'0 0.0
2018-Feb-18 14:59N 44°44' E 037°47'0 0.0
2018-Feb-18 14:29N 44°44' E 037°47'0 0.0
2018-Feb-18 13:59N 44°44' E 037°47'0 0.0
2018-Feb-18 13:29N 44°44' E 037°47'0 0.0
2018-Feb-18 12:59N 44°44' E 037°47'0 0.0
2018-Feb-18 12:29N 44°44' E 037°47'0 0.0
2018-Feb-18 11:59N 44°44' E 037°47'0 0.0
2018-Feb-18 11:29N 44°44' E 037°47'0 0.0
2018-Feb-18 10:59N 44°44' E 037°47'0 0.0
2018-Feb-18 10:29N 44°44' E 037°47'0 0.0
2018-Feb-18 09:59N 44°44' E 037°47'0 0.0
2018-Feb-18 09:29N 44°44' E 037°47'0 0.0
2018-Feb-18 08:59N 44°44' E 037°47'0 0.0
2018-Feb-18 08:29N 44°44' E 037°47'0 0.0
2018-Feb-18 07:59N 44°44' E 037°47'0 0.0
2018-Feb-18 07:29N 44°44' E 037°47'0 0.0
2018-Feb-18 06:59N 44°44' E 037°47'0 0.0
2018-Feb-18 06:29N 44°44' E 037°47'0 0.0
2018-Feb-18 05:59N 44°44' E 037°47'0 0.0
2018-Feb-18 05:29N 44°44' E 037°47'0 0.0
2018-Feb-18 04:59N 44°44' E 037°47'0 0.0
2018-Feb-18 04:29N 44°44' E 037°47'0 0.0
2018-Feb-18 03:59N 44°44' E 037°47'0 0.0
2018-Feb-18 03:29N 44°44' E 037°47'0 0.0
2018-Feb-18 02:59N 44°44' E 037°47'0 0.0
2018-Feb-18 02:29N 44°44' E 037°47'0 0.0
2018-Feb-18 01:59N 44°44' E 037°47'0 0.0
2018-Feb-18 01:29N 44°44' E 037°47'0 0.0
2018-Feb-18 01:00N 44°44' E 037°47'1 1.9
2018-Feb-18 00:30N 44°43' E 037°48'1 3.0
2018-Feb-18 00:00N 44°42' E 037°49'3 5.4
2018-Feb-17 23:30N 44°39' E 037°51'2 4.1
2018-Feb-17 23:00N 44°38' E 037°53'0 0.7
2018-Feb-17 22:30N 44°38' E 037°52'3 6.1
2018-Feb-17 22:00N 44°34' E 037°52'3 5.4
2018-Feb-17 21:30N 44°33' E 037°54'3 5.9
2018-Feb-17 21:00N 44°33' E 037°58'0 0.1
2018-Feb-17 20:28N 44°33' E 037°58'0 0.0
2018-Feb-17 19:58N 44°33' E 037°58'0 0.0
2018-Feb-17 19:28N 44°33' E 037°58'0 0.1
2018-Feb-17 18:58N 44°33' E 037°58'0 0.1
2018-Feb-17 18:28N 44°33' E 037°58'0 0.1
2018-Feb-17 17:58N 44°33' E 037°58'0 0.1
2018-Feb-17 17:28N 44°33' E 037°58'0 0.0
2018-Feb-17 16:58N 44°33' E 037°58'0 0.1
2018-Feb-17 16:28N 44°33' E 037°58'0 0.1
2018-Feb-17 15:58N 44°33' E 037°58'0 0.0
2018-Feb-17 15:28N 44°33' E 037°58'0 0.1
2018-Feb-17 14:58N 44°33' E 037°58'0 0.1
2018-Feb-17 14:25N 44°33' E 037°58'0 0.0
2018-Feb-17 13:58N 44°33' E 037°58'0 0.0
2018-Feb-17 13:28N 44°33' E 037°58'0 0.0
2018-Feb-17 12:58N 44°33' E 037°58'0 0.0
2018-Feb-17 12:28N 44°33' E 037°58'0 0.0
2018-Feb-17 11:58N 44°33' E 037°58'0 0.1
2018-Feb-17 11:28N 44°33' E 037°58'0 0.0
2018-Feb-17 10:58N 44°33' E 037°58'0 0.0
2018-Feb-17 10:28N 44°33' E 037°58'0 0.0
2018-Feb-17 09:58N 44°33' E 037°58'0 0.0
2018-Feb-17 09:28N 44°33' E 037°58'0 0.0
2018-Feb-17 08:58N 44°33' E 037°58'0 0.1
2018-Feb-17 08:28N 44°33' E 037°58'0 0.0
2018-Feb-17 07:58N 44°33' E 037°58'0 0.0
2018-Feb-17 07:28N 44°33' E 037°58'0 0.0
2018-Feb-17 06:58N 44°33' E 037°58'0 0.0
2018-Feb-17 06:28N 44°33' E 037°58'0 0.0
2018-Feb-17 05:58N 44°33' E 037°58'0 0.1
2018-Feb-17 05:28N 44°33' E 037°58'0 0.0
2018-Feb-17 04:58N 44°33' E 037°58'0 0.1
2018-Feb-17 04:28N 44°33' E 037°58'0 0.1
2018-Feb-17 03:58N 44°33' E 037°58'0 0.0
2018-Feb-17 03:25N 44°33' E 037°58'0 0.0
2018-Feb-17 02:58N 44°33' E 037°58'0 0.1
2018-Feb-17 02:28N 44°33' E 037°58'0 0.0
2018-Feb-17 01:58N 44°33' E 037°58'0 0.0
2018-Feb-17 01:28N 44°33' E 037°58'0 0.2
2018-Feb-17 00:58N 44°33' E 037°58'0 0.0
2018-Feb-17 00:28N 44°33' E 037°58'0 0.0
2018-Feb-16 23:58N 44°33' E 037°58'0 0.0
2018-Feb-16 23:28N 44°33' E 037°58'0 0.1
2018-Feb-16 22:58N 44°33' E 037°58'0 0.1
2018-Feb-16 22:28N 44°33' E 037°58'0 0.1
2018-Feb-16 21:58N 44°33' E 037°58'0 0.0
2018-Feb-16 21:28N 44°33' E 037°58'0 0.0
2018-Feb-16 20:58N 44°33' E 037°58'0 0.0
2018-Feb-16 20:28N 44°33' E 037°58'0 0.0
2018-Feb-16 19:58N 44°33' E 037°58'0 0.1
2018-Feb-16 19:28N 44°33' E 037°58'0 0.0
2018-Feb-16 18:55N 44°33' E 037°58'0 0.0
2018-Feb-16 18:28N 44°33' E 037°58'0 0.0
2018-Feb-16 17:58N 44°33' E 037°58'0 0.1
2018-Feb-16 17:28N 44°33' E 037°58'0 0.1
2018-Feb-16 16:58N 44°33' E 037°58'0 0.0
2018-Feb-16 16:25N 44°33' E 037°58'0 0.0
2018-Feb-16 15:58N 44°33' E 037°58'0 0.0
2018-Feb-16 15:28N 44°33' E 037°58'0 0.0
2018-Feb-16 14:58N 44°33' E 037°58'0 0.0
2018-Feb-16 14:28N 44°33' E 037°58'0 0.1
2018-Feb-16 13:58N 44°33' E 037°58'0 0.0
2018-Feb-16 13:28N 44°33' E 037°58'0 0.0
2018-Feb-16 12:58N 44°33' E 037°58'0 0.0
2018-Feb-16 12:28N 44°33' E 037°58'0 0.0
2018-Feb-16 11:58N 44°33' E 037°58'0 0.0
2018-Feb-16 11:28N 44°33' E 037°58'0 0.1
2018-Feb-16 10:58N 44°33' E 037°58'0 0.0
2018-Feb-16 10:28N 44°33' E 037°58'0 0.0
2018-Feb-16 09:58N 44°33' E 037°58'0 0.0
2018-Feb-16 09:28N 44°33' E 037°58'0 0.0
2018-Feb-16 08:58N 44°33' E 037°58'0 0.1
2018-Feb-16 08:28N 44°33' E 037°58'0 0.1
2018-Feb-16 07:58N 44°33' E 037°58'0 0.0
2018-Feb-16 07:28N 44°33' E 037°58'0 0.0
2018-Feb-16 06:58N 44°33' E 037°58'0 0.0
2018-Feb-16 06:28N 44°33' E 037°58'0 0.0
2018-Feb-16 05:58N 44°33' E 037°58'0 0.0
2018-Feb-16 05:28N 44°33' E 037°58'0 0.0
2018-Feb-16 04:52N 44°33' E 037°58'0 0.0
2018-Feb-16 04:28N 44°33' E 037°58'0 0.0
2018-Feb-16 03:58N 44°33' E 037°58'0 0.1
2018-Feb-16 03:28N 44°33' E 037°58'0 0.1
2018-Feb-16 02:58N 44°33' E 037°58'0 0.0
2018-Feb-16 02:28N 44°33' E 037°58'0 0.0
2018-Feb-16 01:58N 44°33' E 037°58'0 0.1
2018-Feb-16 01:28N 44°33' E 037°58'0 0.1
2018-Feb-16 00:58N 44°33' E 037°58'0 0.1
2018-Feb-16 00:28N 44°33' E 037°58'0 0.1
2018-Feb-15 23:58N 44°33' E 037°58'0 0.0
2018-Feb-15 23:28N 44°33' E 037°58'0 0.0
2018-Feb-15 22:58N 44°33' E 037°58'0 0.0
2018-Feb-15 22:28N 44°33' E 037°58'0 0.0
2018-Feb-15 21:58N 44°33' E 037°58'0 0.0
2018-Feb-15 21:28N 44°33' E 037°58'0 0.0
2018-Feb-15 20:58N 44°33' E 037°58'0 0.0
2018-Feb-15 20:28N 44°33' E 037°58'0 0.0
2018-Feb-15 19:58N 44°33' E 037°58'0 0.0
2018-Feb-15 19:28N 44°33' E 037°58'  

Dump ship's entire track history